Time;durP1;ratioP1;P1;durP2;ratioP2;P2;SDS_P1;SDS_P2;PMS_P1;PMS_P2;Temp;Humidity;BMP_temperature;BMP_pressure;BME280_temperature;BME280_humidity;BME280_pressure;Samples;Min_cycle;Max_cycle;Signal;HPM_P1;HPM_P2
2023/10/01 00:00:14;;;;;;;14.48;10.93;;;;;;;11.59;100.00;102243.38;5040901;28;20579;-69
2023/10/01 00:02:41;;;;;;;11.77;10.57;;;;;;;11.53;100.00;102240.88;5032216;28;20025;-70
2023/10/01 00:05:08;;;;;;;13.63;11.32;;;;;;;11.56;100.00;102247.00;5015148;28;20268;-70
2023/10/01 00:07:37;;;;;;;12.57;11.27;;;;;;;11.51;100.00;102243.59;5039347;28;20128;-70
2023/10/01 00:10:11;;;;;;;15.23;11.65;;;;;;;11.51;100.00;102237.41;5034573;28;20487;-70
2023/10/01 00:12:41;;;;;;;13.70;11.73;;;;;;;11.46;100.00;102238.44;5036492;28;20030;-70
2023/10/01 00:15:11;;;;;;;13.38;10.95;;;;;;;11.46;100.00;102246.44;5036703;28;20092;-70
2023/10/01 00:17:39;;;;;;;13.75;11.80;;;;;;;11.45;100.00;102249.13;5041782;28;20038;-69
2023/10/01 00:20:12;;;;;;;14.57;11.40;;;;;;;11.42;100.00;102247.44;5038048;28;20175;-70
2023/10/01 00:22:38;;;;;;;13.55;11.88;;;;;;;11.44;100.00;102250.06;5041283;28;20116;-71
2023/10/01 00:25:10;;;;;;;14.82;12.32;;;;;;;11.45;100.00;102252.69;5039938;28;20103;-70
2023/10/01 00:27:36;;;;;;;14.73;11.93;;;;;;;11.42;100.00;102249.25;5040481;28;20033;-70
2023/10/01 00:30:02;;;;;;;13.35;11.10;;;;;;;11.39;100.00;102252.00;5022490;28;20025;-70
2023/10/01 00:32:29;;;;;;;12.45;11.00;;;;;;;11.40;100.00;102251.94;5034560;28;20503;-70
2023/10/01 00:34:57;;;;;;;13.38;11.68;;;;;;;11.39;100.00;102249.34;5038245;28;20044;-70
2023/10/01 00:37:23;;;;;;;13.13;11.00;;;;;;;11.37;100.00;102249.38;5039104;28;20017;-69
2023/10/01 00:39:54;;;;;;;13.40;11.35;;;;;;;11.32;100.00;102251.31;5040838;28;20025;-70
2023/10/01 00:42:26;;;;;;;15.45;11.68;;;;;;;11.32;100.00;102243.31;5043761;28;20152;-69
2023/10/01 00:44:52;;;;;;;13.43;11.13;;;;;;;11.32;100.00;102248.63;5037242;28;20021;-70
2023/10/01 00:47:21;;;;;;;13.45;11.65;;;;;;;11.30;100.00;102250.50;5041213;28;20035;-70
2023/10/01 00:49:47;;;;;;;15.38;11.90;;;;;;;11.29;100.00;102246.09;5040850;28;20049;-70
2023/10/01 00:52:20;;;;;;;14.75;12.18;;;;;;;11.28;100.00;102247.00;5024889;28;20033;-70
2023/10/01 00:54:50;;;;;;;15.70;12.90;;;;;;;11.25;100.00;102241.78;5037602;28;20025;-70
2023/10/01 00:57:16;;;;;;;15.82;12.75;;;;;;;11.21;100.00;102235.66;5045479;28;20025;-69
2023/10/01 00:59:45;;;;;;;13.13;11.73;;;;;;;11.22;100.00;102232.06;5040727;28;20503;-69
2023/10/01 01:02:15;;;;;;;17.20;12.20;;;;;;;11.21;100.00;102232.13;5039442;28;20029;-70
2023/10/01 01:04:45;;;;;;;14.32;12.00;;;;;;;11.20;100.00;102228.59;5026210;28;20061;-71
2023/10/01 01:07:21;;;;;;;15.07;12.23;;;;;;;11.18;100.00;102226.91;5038804;28;20030;-71
2023/10/01 01:09:47;;;;;;;14.60;12.07;;;;;;;11.15;100.00;102217.19;5045038;28;20025;-70
2023/10/01 01:12:13;;;;;;;15.10;11.95;;;;;;;11.12;100.00;102208.41;5040129;28;20214;-69
2023/10/01 01:14:39;;;;;;;14.15;11.88;;;;;;;11.12;100.00;102208.41;5036853;28;20072;-69
2023/10/01 01:17:05;;;;;;;13.68;11.52;;;;;;;11.10;100.00;102204.94;5038936;28;20514;-70
2023/10/01 01:19:34;;;;;;;13.52;11.45;;;;;;;11.06;100.00;102209.50;5036308;28;20028;-69
2023/10/01 01:22:01;;;;;;;13.38;11.65;;;;;;;11.02;100.00;102201.63;5025206;28;20437;-68
2023/10/01 01:24:28;;;;;;;14.35;11.68;;;;;;;11.04;100.00;102199.81;5040779;28;20163;-70
2023/10/01 01:27:00;;;;;;;13.18;10.73;;;;;;;11.02;100.00;102196.31;5042772;28;20443;-69
2023/10/01 01:29:40;;;;;;;15.07;11.65;;;;;;;11.04;100.00;102197.16;5042575;28;20105;-69
2023/10/01 01:32:13;;;;;;;15.07;11.45;;;;;;;11.00;100.00;102198.16;5036227;28;20029;-69
2023/10/01 01:34:47;;;;;;;14.07;11.45;;;;;;;10.97;100.00;102199.13;5040682;28;20124;-69
2023/10/01 01:37:19;;;;;;;14.60;11.65;;;;;;;10.96;100.00;102192.94;5040915;28;20499;-69
2023/10/01 01:39:51;;;;;;;13.25;11.15;;;;;;;10.95;100.00;102191.19;5041056;28;20551;-70
2023/10/01 01:42:19;;;;;;;13.52;11.27;;;;;;;10.92;100.00;102191.28;5042618;28;20076;-69
2023/10/01 01:44:47;;;;;;;13.43;10.73;;;;;;;10.95;100.00;102193.84;5040266;28;20120;-69
2023/10/01 01:47:16;;;;;;;14.63;11.05;;;;;;;10.88;100.00;102186.97;5039828;28;20032;-69
2023/10/01 01:49:43;;;;;;;13.45;11.57;;;;;;;10.92;100.00;102188.63;5035030;28;20044;-70
2023/10/01 01:52:09;;;;;;;13.88;10.70;;;;;;;10.91;100.00;102185.97;5040445;28;20102;-69
2023/10/01 01:54:42;;;;;;;15.35;11.50;;;;;;;10.90;100.00;102178.91;5020006;28;20277;-69
2023/10/01 01:57:17;;;;;;;13.20;11.30;;;;;;;10.90;100.00;102182.44;5033349;28;20044;-69
2023/10/01 01:59:43;;;;;;;13.27;10.82;;;;;;;10.92;100.00;102180.63;5030430;28;20103;-69
2023/10/01 02:02:09;;;;;;;11.98;10.30;;;;;;;10.97;100.00;102172.47;5041559;28;20037;-69
2023/10/01 02:04:58;;;;;;;13.88;10.00;;;;;;;11.02;100.00;102178.53;5035918;28;20026;-69
2023/10/01 02:07:21;;;;;;;11.80;10.35;;;;;;;11.02;100.00;102169.66;5036681;28;20049;-69
2023/10/01 02:09:48;;;;;;;14.30;10.10;;;;;;;10.96;100.00;102173.41;5041313;28;20556;-69
2023/10/01 02:12:23;;;;;;;11.70;9.60;;;;;;;11.00;100.00;102176.84;5041665;28;20097;-69
2023/10/01 02:14:54;;;;;;;13.13;10.43;;;;;;;10.97;100.00;102180.47;5040895;28;20055;-70
2023/10/01 02:17:22;;;;;;;12.35;9.90;;;;;;;10.93;100.00;102177.03;5040086;28;20060;-69
2023/10/01 02:19:47;;;;;;;14.52;10.48;;;;;;;10.91;100.00;102173.56;5041345;28;20036;-68
2023/10/01 02:22:14;;;;;;;12.25;9.05;;;;;;;10.88;100.00;102165.66;5034992;28;20021;-69
2023/10/01 02:24:45;;;;;;;13.57;9.57;;;;;;;10.88;100.00;102159.47;5036020;28;20021;-69
2023/10/01 02:27:15;;;;;;;11.73;9.27;;;;;;;10.83;100.00;102167.59;5036351;28;20087;-69
2023/10/01 02:32:28;;;;;;;12.60;9.25;;;;;;;10.82;100.00;102159.63;5039377;28;20082;-70
2023/10/01 02:34:56;;;;;;;11.63;9.65;;;;;;;10.77;100.00;102153.59;5018371;28;20021;-68
2023/10/01 02:37:35;;;;;;;10.95;8.63;;;;;;;10.76;100.00;102155.38;5035147;28;20052;-69
2023/10/01 02:40:12;;;;;;;13.15;10.02;;;;;;;10.73;100.00;102161.66;5037220;28;20507;-69
2023/10/01 02:42:38;;;;;;;10.10;9.00;;;;;;;10.72;100.00;102153.72;5033654;28;20017;-70
2023/10/01 02:45:30;;;;;;;13.40;9.35;;;;;;;10.70;100.00;102158.22;5040700;28;20086;-70
2023/10/01 02:48:12;;;;;;;11.73;9.40;;;;;;;10.70;100.00;102156.44;5040487;28;20060;-69
2023/10/01 02:50:36;;;;;;;12.30;9.20;;;;;;;10.71;100.00;102162.63;5040178;28;20044;-68
2023/10/01 02:53:02;;;;;;;12.32;9.88;;;;;;;10.64;100.00;102161.94;5033335;28;20112;-69
2023/10/01 02:55:29;;;;;;;12.88;9.68;;;;;;;10.63;100.00;102168.19;5040647;28;20527;-70
2023/10/01 02:58:01;;;;;;;12.05;9.82;;;;;;;10.63;100.00;102168.19;5038485;28;20931;-68
2023/10/01 03:00:30;;;;;;;12.13;9.77;;;;;;;10.66;100.00;102172.56;5037607;28;20033;-69
2023/10/01 03:02:58;;;;;;;12.70;9.38;;;;;;;10.60;100.00;102162.94;5038196;28;20056;-68
2023/10/01 03:05:36;;;;;;;11.55;9.40;;;;;;;10.60;100.00;102168.28;5037843;28;20380;-69
2023/10/01 03:08:05;;;;;;;10.13;8.98;;;;;;;10.60;100.00;102170.94;5039165;28;20576;-69
2023/10/01 03:10:31;;;;;;;10.70;8.77;;;;;;;10.61;100.00;102169.13;5041269;28;20537;-69
2023/10/01 03:12:59;;;;;;;12.75;9.82;;;;;;;10.62;100.00;102166.47;5035921;28;20021;-70
2023/10/01 03:15:29;;;;;;;11.55;9.25;;;;;;;10.57;100.00;102172.81;5040287;28;20106;-68
2023/10/01 03:18:05;;;;;;;11.60;9.05;;;;;;;10.57;100.00;102165.69;5037430;28;20243;-69
2023/10/01 03:23:07;;;;;;;10.90;9.15;;;;;;;10.53;100.00;102164.03;5037725;28;20443;-70
2023/10/01 03:25:45;;;;;;;10.57;9.05;;;;;;;10.48;100.00;102161.53;5039472;28;20017;-69
2023/10/01 03:28:27;;;;;;;12.15;9.23;;;;;;;10.49;100.00;102162.38;5040194;28;20155;-70
2023/10/01 03:31:08;;;;;;;10.88;8.30;;;;;;;10.48;100.00;102164.19;5041797;28;20044;-70
2023/10/01 03:33:40;;;;;;;11.65;8.27;;;;;;;10.52;100.00;102164.09;5036270;28;20033;-70
2023/10/01 03:36:10;;;;;;;11.40;8.38;;;;;;;10.47;100.00;102161.56;5038936;28;20123;-69
2023/10/01 03:38:40;;;;;;;11.52;8.32;;;;;;;10.47;100.00;102166.91;5036757;28;20036;-71
2023/10/01 03:41:08;;;;;;;14.38;9.05;;;;;;;10.41;100.00;102157.31;5037237;28;20120;-70
2023/10/01 03:43:35;;;;;;;10.82;8.02;;;;;;;10.44;100.00;102167.84;5037684;28;20052;-70
2023/10/01 03:48:57;;;;;;;11.32;9.20;;;;;;;10.39;100.00;102164.44;5034949;28;20041;-70
2023/10/01 03:51:52;;;;;;;10.70;8.35;;;;;;;10.39;100.00;102161.78;5029133;28;20099;-69
2023/10/01 03:54:20;;;;;;;10.48;8.32;;;;;;;10.39;100.00;102152.94;5033173;28;20049;-68
2023/10/01 03:57:00;;;;;;;11.65;8.85;;;;;;;10.36;100.00;102153.88;5039507;28;20027;-69
2023/10/01 03:59:33;;;;;;;13.35;8.60;;;;;;;10.37;100.00;102158.31;5038926;28;20107;-69
2023/10/01 04:01:59;;;;;;;9.45;8.27;;;;;;;10.30;100.00;102143.44;5036997;28;20028;-70
2023/10/01 04:04:28;;;;;;;11.52;8.57;;;;;;;10.31;100.00;102155.81;5035218;28;20039;-68
2023/10/01 04:06:56;;;;;;;11.18;8.70;;;;;;;10.33;100.00;102156.66;5038280;28;20029;-70
2023/10/01 04:09:26;;;;;;;13.27;8.93;;;;;;;10.32;100.00;102152.22;5039401;28;20055;-69
2023/10/01 04:12:18;;;;;;;9.30;7.90;;;;;;;10.33;100.00;102153.13;5039759;28;20079;-69
2023/10/01 04:14:48;;;;;;;11.25;8.43;;;;;;;10.26;100.00;102152.41;5038961;28;20044;-69
2023/10/01 04:17:19;;;;;;;10.18;7.72;;;;;;;10.26;100.00;102152.41;5033674;28;20021;-70
2023/10/01 04:19:49;;;;;;;9.68;8.02;;;;;;;10.24;100.00;102154.22;5037544;28;20029;-69
2023/10/01 04:22:21;;;;;;;10.45;8.07;;;;;;;10.21;100.00;102160.50;5034623;28;20025;-71
2023/10/01 04:25:00;;;;;;;11.70;8.10;;;;;;;10.19;100.00;102156.13;5038165;28;20098;-70
2023/10/01 04:27:34;;;;;;;11.02;7.53;;;;;;;10.18;100.00;102151.72;5031329;28;20036;-69
2023/10/01 04:30:09;;;;;;;9.88;7.50;;;;;;;10.16;100.00;102156.25;5019305;28;20109;-69
2023/10/01 04:32:36;;;;;;;11.10;7.20;;;;;;;10.16;100.00;102150.91;5036015;28;20027;-69
2023/10/01 04:35:17;;;;;;;9.10;6.70;;;;;;;10.16;100.00;102146.47;5030117;28;20037;-69
2023/10/01 04:37:44;;;;;;;10.30;7.70;;;;;;;10.14;100.00;102152.75;5037003;28;20507;-69
2023/10/01 04:42:56;;;;;;;10.88;7.97;;;;;;;10.10;100.00;102148.41;5040304;28;20315;-68
2023/10/01 04:45:24;;;;;;;10.38;8.55;;;;;;;10.13;100.00;102151.00;5036301;28;20029;-68
2023/10/01 04:47:55;;;;;;;12.95;9.25;;;;;;;10.12;100.00;102144.81;5037701;28;20047;-69
2023/10/01 04:50:27;;;;;;;13.27;9.43;;;;;;;10.13;100.00;102153.66;5032720;28;20053;-68
2023/10/01 04:52:57;;;;;;;12.20;8.82;;;;;;;10.08;100.00;102147.59;5039280;28;20670;-69
2023/10/01 04:55:25;;;;;;;12.52;9.07;;;;;;;10.09;100.00;102154.66;5051150;28;20048;-69
2023/10/01 04:57:51;;;;;;;11.35;9.32;;;;;;;10.07;100.00;102151.16;5031343;28;21715;-69
2023/10/01 05:00:21;;;;;;;11.05;8.77;;;;;;;10.08;100.00;102150.25;5035116;28;20024;-69
2023/10/01 05:02:47;;;;;;;10.15;8.52;;;;;;;10.10;100.00;102156.41;5033297;28;20029;-69
2023/10/01 05:05:16;;;;;;;11.15;8.70;;;;;;;10.06;100.00;102152.94;5035336;28;20021;-69
2023/10/01 05:07:42;;;;;;;9.43;8.05;;;;;;;10.06;100.00;102149.41;5042111;28;20060;-69
2023/10/01 05:10:08;;;;;;;13.25;8.35;;;;;;;10.06;100.00;102144.97;5023552;28;20383;-69
2023/10/01 05:12:35;;;;;;;13.80;8.73;;;;;;;10.05;100.00;102140.56;5043064;28;20388;-69
2023/10/01 05:15:01;;;;;;;10.55;7.90;;;;;;;10.06;100.00;102155.59;5040864;28;20032;-69
2023/10/01 05:17:30;;;;;;;9.55;7.53;;;;;;;10.06;100.00;102146.75;5036935;28;20484;-69
2023/10/01 05:19:58;;;;;;;11.50;7.55;;;;;;;10.07;100.00;102148.50;5040725;28;20048;-69
2023/10/01 05:22:25;;;;;;;10.50;7.35;;;;;;;10.05;100.00;102142.34;5040898;28;20037;-69
2023/10/01 05:24:51;;;;;;;11.07;7.25;;;;;;;10.07;100.00;102143.19;5036622;28;20208;-70
2023/10/01 05:27:18;;;;;;;9.13;7.38;;;;;;;10.10;100.00;102140.44;5042867;28;20025;-69
2023/10/01 05:29:45;;;;;;;13.43;8.27;;;;;;;10.07;100.00;102146.69;5036971;28;20497;-69
2023/10/01 05:32:11;;;;;;;10.40;7.45;;;;;;;10.09;100.00;102147.56;5036576;28;20539;-69
2023/10/01 05:34:38;;;;;;;10.23;7.30;;;;;;;10.09;100.00;102159.97;5037882;28;20032;-69
2023/10/01 05:37:12;;;;;;;9.98;7.47;;;;;;;10.13;100.00;102162.50;5038609;28;20052;-70
2023/10/01 05:39:57;;;;;;;9.73;7.70;;;;;;;10.12;100.00;102159.91;5037843;28;20065;-69
2023/10/01 05:42:28;;;;;;;11.70;7.80;;;;;;;10.13;100.00;102174.94;5039274;28;20075;-70
2023/10/01 05:44:59;;;;;;;11.85;8.10;;;;;;;10.14;100.00;102172.22;5036924;28;20981;-70
2023/10/01 05:47:51;;;;;;;14.18;8.48;;;;;;;10.14;100.00;102174.88;5034125;28;20601;-69
2023/10/01 05:50:12;;;;;;;12.40;8.30;;;;;;;10.14;100.00;102174.88;5038436;28;20537;-70
2023/10/01 05:52:40;;;;;;;13.40;8.45;;;;;;;10.14;100.00;102172.22;5039463;28;20029;-70
2023/10/01 05:55:12;;;;;;;10.95;8.57;;;;;;;10.17;100.00;102179.25;5039006;28;20504;-70
2023/10/01 05:57:38;;;;;;;12.43;8.50;;;;;;;10.20;100.00;102181.84;5037720;28;20020;-70
2023/10/01 06:00:16;;;;;;;12.07;8.82;;;;;;;10.20;100.00;102173.88;5033976;28;20083;-71
2023/10/01 06:02:47;;;;;;;11.73;9.52;;;;;;;10.22;100.00;102172.03;5038655;28;20040;-71
2023/10/01 06:05:32;;;;;;;11.45;8.43;;;;;;;10.24;100.00;102159.53;5038033;28;20036;-71
2023/10/01 06:07:58;;;;;;;13.25;9.40;;;;;;;10.25;100.00;102163.13;5037282;28;20028;-70
2023/10/01 06:10:26;;;;;;;11.88;8.32;;;;;;;10.28;100.00;102158.56;5035839;28;20021;-71
2023/10/01 06:12:56;;;;;;;12.00;8.82;;;;;;;10.29;100.00;102163.00;5036470;28;20045;-71
2023/10/01 06:15:25;;;;;;;11.90;8.30;;;;;;;10.34;100.00;102162.84;5036004;28;20036;-70
2023/10/01 06:17:53;;;;;;;12.10;7.50;;;;;;;10.39;100.00;102168.91;5041563;28;20407;-71
2023/10/01 06:20:26;;;;;;;12.10;8.00;;;;;;;10.41;100.00;102167.97;5038815;28;20029;-71
2023/10/01 06:22:52;;;;;;;11.93;8.63;;;;;;;10.42;100.00;102169.69;5039874;28;20025;-70
2023/10/01 06:25:37;;;;;;;11.85;8.45;;;;;;;10.47;100.00;102169.56;5040006;28;20291;-71
2023/10/01 06:28:07;;;;;;;11.45;8.05;;;;;;;10.53;100.00;102172.03;5041683;28;20495;-70
2023/10/01 06:30:34;;;;;;;12.82;8.95;;;;;;;10.69;100.00;102167.13;5024156;28;20403;-70
2023/10/01 06:32:59;;;;;;;14.20;8.52;;;;;;;10.92;100.00;102177.09;5037887;28;20032;-71
2023/10/01 06:35:25;;;;;;;12.23;9.32;;;;;;;11.26;100.00;102174.22;5038256;28;20032;-72
2023/10/01 06:37:52;;;;;;;13.35;9.20;;;;;;;11.64;100.00;102177.41;5033488;28;20470;-71
2023/10/01 06:40:29;;;;;;;11.50;8.90;;;;;;;11.89;100.00;102170.31;5037990;28;20029;-70
2023/10/01 06:42:56;;;;;;;11.38;8.50;;;;;;;12.13;100.00;102173.06;5041049;28;20721;-71
2023/10/01 06:45:38;;;;;;;10.95;8.20;;;;;;;12.46;100.00;102158.47;5036105;28;20094;-70
2023/10/01 06:48:14;;;;;;;13.18;8.35;;;;;;;12.70;100.00;102159.28;5035700;28;20035;-70
2023/10/01 06:50:40;;;;;;;8.18;6.57;;;;;;;12.85;100.00;102171.19;5038730;28;20120;-70
2023/10/01 06:53:07;;;;;;;10.90;7.07;;;;;;;12.77;100.00;102175.97;5036245;28;20519;-71
2023/10/01 06:55:36;;;;;;;11.45;7.50;;;;;;;12.63;100.00;102172.97;5040612;28;20485;-69
2023/10/01 06:58:06;;;;;;;12.30;7.35;;;;;;;12.52;100.00;102175.16;5040701;28;20028;-71
2023/10/01 07:00:35;;;;;;;11.30;7.40;;;;;;;12.38;100.00;102168.56;5037007;28;20078;-69
2023/10/01 07:03:17;;;;;;;12.88;7.85;;;;;;;12.22;100.00;102162.03;5036827;28;20040;-71
2023/10/01 07:05:47;;;;;;;15.32;8.75;;;;;;;12.11;100.00;102164.22;5037085;28;20083;-71
2023/10/01 07:08:16;;;;;;;12.65;8.50;;;;;;;12.05;100.00;102159.13;5030756;28;20708;-71
2023/10/01 07:10:42;;;;;;;11.65;8.18;;;;;;;12.02;100.00;102157.41;5041201;28;20036;-71
2023/10/01 07:13:10;;;;;;;13.48;8.48;;;;;;;12.01;100.00;102155.69;5036045;28;20399;-70
2023/10/01 07:15:39;;;;;;;14.32;8.93;;;;;;;12.01;100.00;102155.69;5038192;28;20028;-71
2023/10/01 07:18:15;;;;;;;11.85;7.50;;;;;;;12.05;100.00;102159.13;5038343;28;20037;-70
2023/10/01 07:20:44;;;;;;;11.70;8.25;;;;;;;12.06;100.00;102156.38;5014917;28;20029;-71
2023/10/01 07:23:13;;;;;;;12.52;8.32;;;;;;;12.07;100.00;102151.91;5038610;28;20263;-70
2023/10/01 07:25:42;;;;;;;13.43;8.40;;;;;;;12.18;100.00;102157.75;5037788;28;20150;-70
2023/10/01 07:28:12;;;;;;;12.73;8.32;;;;;;;12.24;100.00;102154.81;5017735;28;20086;-69
2023/10/01 07:30:46;;;;;;;12.18;8.55;;;;;;;12.33;100.00;102162.53;5029782;28;20056;-71
2023/10/01 07:33:17;;;;;;;14.50;8.85;;;;;;;12.47;100.00;102170.00;5037510;28;20131;-71
2023/10/01 07:35:44;;;;;;;13.20;8.73;;;;;;;12.74;100.00;102160.06;5038882;28;20422;-71
2023/10/01 07:38:16;;;;;;;12.45;8.00;;;;;;;12.98;100.00;102170.72;5038489;28;20033;-71
2023/10/01 07:41:07;;;;;;;12.73;8.13;;;;;;;13.13;100.00;102167.44;5036189;28;20056;-71
2023/10/01 07:43:32;;;;;;;11.60;7.75;;;;;;;13.21;100.00;102166.19;5034278;28;20206;-70
2023/10/01 07:45:58;;;;;;;11.43;8.27;;;;;;;13.27;100.00;102173.13;5030918;28;20527;-70
2023/10/01 07:48:28;;;;;;;10.68;7.28;;;;;;;13.38;100.00;102173.56;5029304;28;20026;-71
2023/10/01 07:50:55;;;;;;;12.60;7.82;;;;;;;13.71;100.00;102170.41;5016383;28;20140;-70
2023/10/01 07:53:22;;;;;;;11.55;7.95;;;;;;;14.41;100.00;102172.59;5030887;28;20515;-70
2023/10/01 07:55:47;;;;;;;13.20;8.00;;;;;;;14.97;100.00;102181.66;5032116;28;20458;-71
2023/10/01 07:58:23;;;;;;;11.55;7.10;;;;;;;15.85;97.75;102183.56;5031386;28;20538;-71
2023/10/01 08:00:58;;;;;;;11.40;7.30;;;;;;;16.70;93.52;102180.78;5033253;28;20027;-71
2023/10/01 08:05:50;;;;;;;11.10;6.72;;;;;;;18.05;84.26;102186.44;5033282;28;20040;-71
2023/10/01 08:08:37;;;;;;;12.02;6.82;;;;;;;18.72;81.05;102184.94;5033575;28;20033;-72
2023/10/01 08:11:55;;;;;;;11.07;6.95;;;;;;;19.29;77.46;102183.97;5036844;28;20523;-71
2023/10/01 08:13:55;;;;;;;10.65;6.45;;;;;;;19.96;74.36;102189.34;5038806;28;20123;-70
2023/10/01 08:16:23;;;;;;;10.82;7.40;;;;;;;20.36;72.57;102182.91;5033769;28;20140;-71
2023/10/01 08:18:51;;;;;;;10.02;6.55;;;;;;;21.17;70.32;102178.84;5037083;28;20025;-71
2023/10/01 08:21:17;;;;;;;9.90;6.78;;;;;;;21.67;66.33;102174.19;5036974;28;20079;-71
2023/10/01 08:23:48;;;;;;;11.63;7.32;;;;;;;22.25;63.56;102177.81;5035731;28;20044;-71
2023/10/01 08:28:58;;;;;;;10.50;6.63;;;;;;;22.67;60.25;102178.06;5034708;28;20548;-71
2023/10/01 08:34:29;;;;;;;11.77;6.78;;;;;;;23.00;59.72;102200.75;4987724;28;20030;-71
2023/10/01 08:37:06;;;;;;;11.68;7.40;;;;;;;23.48;58.04;102197.66;4985727;28;20104;-71
2023/10/01 08:39:35;;;;;;;9.48;6.43;;;;;;;23.85;55.24;102201.72;4990730;28;20449;-71
2023/10/01 08:42:09;;;;;;;10.98;6.88;;;;;;;24.12;54.21;102200.34;4993900;28;20130;-71
2023/10/01 08:44:49;;;;;;;10.15;6.82;;;;;;;24.32;56.25;102199.44;4990311;28;20044;-72
2023/10/01 08:47:36;;;;;;;10.73;7.25;;;;;;;24.32;54.51;102207.59;4996212;28;20044;-72
2023/10/01 08:50:27;;;;;;;10.95;6.35;;;;;;;24.62;55.05;102203.19;4992718;28;20072;-71
2023/10/01 08:53:01;;;;;;;10.98;6.95;;;;;;;25.48;52.57;102200.88;4991587;28;20275;-71
2023/10/01 09:00:49;;;;;;;10.18;6.65;;;;;;;26.24;48.05;102199.09;4987659;28;20167;-72
2023/10/01 09:03:28;;;;;;;10.70;6.75;;;;;;;26.53;48.42;102199.03;4992592;28;20113;-72
2023/10/01 09:06:24;;;;;;;10.27;6.85;;;;;;;27.18;46.19;102201.75;4996497;28;20195;-71
2023/10/01 09:08:59;;;;;;;9.98;6.65;;;;;;;28.03;44.96;102205.81;5023002;28;20032;-71
2023/10/01 09:11:47;;;;;;;10.43;7.25;;;;;;;28.48;45.46;102196.56;5041366;28;20124;-72
2023/10/01 09:14:17;;;;;;;9.63;6.10;;;;;;;28.28;42.95;102204.09;5038832;28;20281;-72
2023/10/01 09:16:46;;;;;;;10.70;6.82;;;;;;;27.64;43.55;102210.75;5050605;28;20086;-70
2023/10/01 09:19:34;;;;;;;9.75;6.35;;;;;;;27.24;45.10;102198.38;5046394;28;20029;-71
2023/10/01 09:22:16;;;;;;;12.93;7.70;;;;;;;27.64;46.23;102199.81;5039883;28;20028;-72
2023/10/01 09:24:43;;;;;;;10.90;7.43;;;;;;;27.70;43.87;102190.97;5044633;28;20033;-71
2023/10/01 09:27:21;;;;;;;10.98;6.43;;;;;;;27.56;44.77;102197.88;5040744;28;20462;-73
2023/10/01 09:29:57;;;;;;;10.68;6.75;;;;;;;28.35;43.29;102195.25;5038213;28;20048;-72
2023/10/01 09:32:51;;;;;;;10.05;7.07;;;;;;;28.96;43.17;102197.81;5035740;28;20044;-72
2023/10/01 09:35:39;;;;;;;10.93;7.13;;;;;;;28.85;41.47;102187.13;5034246;28;20110;-71
2023/10/01 09:38:12;;;;;;;11.65;7.22;;;;;;;28.64;42.98;102183.97;5037986;28;20049;-71
2023/10/01 09:40:38;;;;;;;11.40;7.25;;;;;;;28.80;40.87;102170.31;5047287;28;20025;-71
2023/10/01 09:43:05;;;;;;;11.05;7.18;;;;;;;29.46;40.58;102171.34;5056361;28;20024;-71
2023/10/01 09:45:39;;;;;;;10.25;6.50;;;;;;;30.26;38.62;102177.00;5035223;28;20025;-71
2023/10/01 09:48:09;;;;;;;10.32;6.97;;;;;;;30.69;38.62;102169.34;5033428;28;20052;-72
2023/10/01 09:50:41;;;;;;;10.10;6.32;;;;;;;31.09;36.59;102170.16;5038850;28;20290;-72
2023/10/01 09:53:14;;;;;;;11.32;6.70;;;;;;;31.39;36.65;102169.31;5030396;28;20188;-72
2023/10/01 09:55:48;;;;;;;9.63;6.10;;;;;;;32.03;37.04;102171.72;5033776;28;20222;-72
2023/10/01 09:58:26;;;;;;;10.43;6.63;;;;;;;32.66;35.30;102173.09;5030638;28;20031;-72
2023/10/01 10:00:53;;;;;;;11.95;7.18;;;;;;;32.97;33.80;102172.00;5035767;28;20118;-71
2023/10/01 10:03:19;;;;;;;10.38;6.82;;;;;;;33.00;32.83;102173.53;5034722;28;20021;-72
2023/10/01 10:05:46;;;;;;;9.38;6.13;;;;;;;32.73;33.05;102173.16;5036135;28;20032;-71
2023/10/01 10:08:13;;;;;;;10.20;6.50;;;;;;;33.13;33.03;102181.94;5030957;28;20056;-71
2023/10/01 10:10:50;;;;;;;9.90;6.30;;;;;;;33.27;33.87;102177.41;5035726;28;20059;-73
2023/10/01 10:13:45;;;;;;;11.73;7.13;;;;;;;33.44;34.25;102173.34;5037873;28;20022;-71
2023/10/01 10:16:32;;;;;;;9.57;6.80;;;;;;;33.30;32.90;102174.28;5036882;28;20036;-71
2023/10/01 10:19:12;;;;;;;11.52;6.60;;;;;;;33.95;33.05;102164.94;5037041;28;20025;-71
2023/10/01 10:24:34;;;;;;;10.60;7.22;;;;;;;33.97;31.81;102168.34;5037035;28;20041;-72
2023/10/01 10:27:14;;;;;;;11.60;7.15;;;;;;;34.12;32.40;102165.50;5034298;28;20086;-73
2023/10/01 10:33:16;;;;;;;9.88;6.93;;;;;;;35.46;32.21;102162.25;5012620;22;20643;-72
2023/10/01 10:35:49;;;;;;;10.88;6.60;;;;;;;34.95;30.27;102155.31;5001846;28;20029;-72
2023/10/01 10:38:51;;;;;;;11.93;7.20;;;;;;;35.54;31.41;102148.25;4999560;28;20030;-71
2023/10/01 10:41:17;;;;;;;11.27;7.13;;;;;;;35.06;29.76;102148.34;4995958;28;20053;-71
2023/10/01 10:44:08;;;;;;;13.10;6.72;;;;;;;35.66;31.63;102155.69;5001425;28;20435;-71
2023/10/01 10:47:03;;;;;;;9.80;6.30;;;;;;;36.23;30.66;102150.53;4996250;28;20057;-70
2023/10/01 10:49:53;;;;;;;12.50;7.47;;;;;;;35.73;30.36;102149.28;4990653;28;20030;-73
2023/10/01 10:52:32;;;;;;;10.52;6.55;;;;;;;35.35;31.01;102141.56;4997140;28;20426;-72
2023/10/01 10:55:15;;;;;;;12.73;7.55;;;;;;;35.68;29.72;102149.94;4994999;28;20476;-72
2023/10/01 10:57:48;;;;;;;9.75;6.70;;;;;;;36.04;28.41;102143.97;4995368;28;20044;-72
2023/10/01 11:00:23;;;;;;;;;;;;;;;37.35;29.48;102146.41;4999167;28;20076;-72
2023/10/01 11:02:55;;;;;;;11.27;7.30;;;;;;;36.14;28.29;102151.84;4991114;28;19924;-72
2023/10/01 11:05:20;;;;;;;12.00;7.30;;;;;;;36.17;28.26;102138.41;4995808;28;20513;-71
2023/10/01 11:08:03;;;;;;;10.50;7.32;;;;;;;36.44;29.30;102143.84;4995164;28;20022;-72
2023/10/01 11:10:44;;;;;;;;;;;;;;;37.92;28.75;102145.53;4997883;28;20854;-72
2023/10/01 11:13:13;;;;;;;11.70;7.30;;;;;;;36.90;27.03;102140.91;4994451;28;20223;-72
2023/10/01 11:15:39;;;;;;;12.93;7.53;;;;;;;36.44;27.00;102143.84;4994938;28;20034;-72
2023/10/01 11:18:09;;;;;;;10.45;6.88;;;;;;;36.71;27.72;102143.78;4995970;28;20038;-71
2023/10/01 11:20:44;;;;;;;9.68;6.78;;;;;;;36.53;28.18;102136.16;4996416;28;20053;-72
2023/10/01 11:23:16;;;;;;;9.02;6.45;;;;;;;37.04;28.16;102129.75;4992476;28;20076;-71
2023/10/01 11:25:47;;;;;;;10.40;7.47;;;;;;;37.10;26.94;102138.03;4988901;28;20022;-72
2023/10/01 11:28:13;;;;;;;10.02;6.85;;;;;;;36.18;27.91;102133.72;4996907;28;20064;-72
2023/10/01 11:30:44;;;;;;;11.88;7.63;;;;;;;35.73;27.79;102129.91;4996083;28;20021;-71
2023/10/01 11:36:06;;;;;;;11.13;7.75;;;;;;;35.88;28.81;102125.84;4999177;28;20038;-71
2023/10/01 11:38:34;;;;;;;13.32;7.18;;;;;;;36.45;28.18;102117.00;4995889;28;20048;-71
2023/10/01 11:41:10;;;;;;;11.20;7.20;;;;;;;36.58;27.70;102111.44;4994705;28;20034;-71
2023/10/01 11:43:38;;;;;;;10.95;7.32;;;;;;;36.76;27.48;102110.69;4994777;28;20025;-71
2023/10/01 11:46:27;;;;;;;10.35;6.97;;;;;;;37.11;27.42;102111.13;4995172;28;20036;-71
2023/10/01 11:49:15;;;;;;;10.10;7.30;;;;;;;37.52;28.02;102109.78;4992409;28;20089;-71
2023/10/01 11:52:01;;;;;;;9.48;6.28;;;;;;;37.09;26.71;102091.94;4976829;28;20083;-72
2023/10/01 11:54:44;;;;;;;12.20;7.53;;;;;;;37.02;27.71;102106.94;4990998;28;20053;-71
2023/10/01 11:57:31;;;;;;;;;;;;;;;38.23;26.88;102094.53;4998232;28;20308;-72
2023/10/01 11:59:58;;;;;;;10.05;7.22;;;;;;;37.44;26.07;102093.41;4995922;28;19913;-72
2023/10/01 12:02:33;;;;;;;10.30;7.65;;;;;;;37.74;26.60;102099.09;4996379;28;20026;-71
2023/10/01 12:05:06;;;;;;;11.77;7.47;;;;;;;37.04;26.79;102091.78;4996821;28;20113;-70
2023/10/01 12:07:43;;;;;;;11.13;7.47;;;;;;;36.62;26.97;102096.00;4999671;28;20037;-70